| Date | Time | Temp. (oF) | Dew Point (oF) | Rel. Hum. (%) | Press. (in.) | Wind Dir. | Wind Speed (mph) | Hourly Rainfall (in.) |
|
|---|---|---|---|---|---|---|---|---|---|
| 1 | 05/08 | 23:58 | 58 | 54 | 88 | 30.13 | ESE | 4 | 0.01 |
| 2 | 05/08 | 23:00 | 61 | 56 | 84 | 30.15 | SE | 3 | 0.00 |
| 3 | 05/08 | 22:00 | 63 | 56 | 79 | 30.14 | SSE | 4 | 0.00 |
| 4 | 05/08 | 21:00 | 65 | 56 | 75 | 30.13 | SE | 4 | 0.00 |
| 5 | 05/08 | 20:00 | 67 | 57 | 72 | 30.11 | S | 4 | 0.00 |
| 6 | 05/08 | 19:00 | 69 | 58 | 70 | 30.11 | SE | 10 | 0.00 |
| 7 | 05/08 | 18:00 | 73 | 56 | 56 | 30.11 | S | 5 | 0.00 |
| 8 | 05/08 | 17:00 | 75 | 54 | 50 | 30.10 | S | 11 | 0.00 |
| 9 | 05/08 | 16:00 | 76 | 53 | 46 | 30.11 | SSW | 7 | 0.00 |
| 10 | 05/08 | 15:00 | 75 | 54 | 49 | 30.12 | SSE | 5 | 0.00 |
| 11 | 05/08 | 14:00 | 74 | 54 | 50 | 30.14 | SSE | 5 | 0.00 |
| 12 | 05/08 | 13:00 | 71 | 49 | 47 | 30.16 | NNW | 6 | 0.00 |
| 13 | 05/08 | 12:00 | 70 | 53 | 57 | 30.17 | E | 4 | 0.00 |
| 14 | 05/08 | 11:00 | 68 | 53 | 60 | 30.17 | ENE | 7 | 0.00 |
| 15 | 05/08 | 10:00 | 64 | 50 | 61 | 30.19 | NNE | 7 | 0.00 |
| 16 | 05/08 | 09:00 | 62 | 49 | 63 | 30.19 | NNE | 12 | 0.00 |
| 17 | 05/08 | 08:00 | 60 | 50 | 72 | 30.16 | NNW | 10 | 0.00 |
| 18 | 05/08 | 07:00 | 57 | 52 | 84 | 30.13 | NNW | 5 | 0.00 |
| 19 | 05/08 | 06:00 | 57 | 57 | 100 | 30.10 | N | 2 | 0.00 |
| 20 | 05/08 | 05:00 | 57 | 56 | 99 | 30.07 | N | 1 | 0.00 |
| 21 | 05/08 | 04:00 | 57 | 56 | 97 | 30.05 | SW | 0 | 0.00 |
| 22 | 05/08 | 03:00 | 59 | 57 | 96 | 30.04 | W | 0 | 0.00 |
| 23 | 05/08 | 02:00 | 60 | 57 | 93 | 30.04 | WNW | 0 | 0.00 |
| 24 | 05/08 | 01:00 | 61 | 58 | 92 | 30.03 | WNW | 0 | 0.00 |